Date,TemperatureHighF,TemperatureAvgF,TemperatureLowF,DewpointHighF,DewpointAvgF,DewpointLowF,HumidityHigh,HumidityAvg,HumidityLow,PressureMaxIn,PressureMinIn,WindSpeedMaxMPH,WindSpeedAvgMPH,GustSpeedMaxMPH,PrecipitationSumIn
2018-1-1,59.3,52.0,44.7,49.3,41.9,27.0,83,67,45,30.19,29.99,6,1,10,0.00
2018-1-2,60.6,54.5,48.4,51.1,47.9,44.5,90,77,59,30.00,29.75,8,3,14,0.34
2018-1-3,58.0,52.2,46.5,47.5,45.1,43.2,91,78,61,29.89,29.75,5,1,10,0.01
2018-1-4,57.2,51.5,45.7,48.8,44.1,37.3,91,78,58,29.88,29.55,12,2,18,0.63
2018-1-5,58.7,51.4,44.1,45.8,39.8,31.3,77,66,50,30.04,29.86,4,1,7,0.00
2018-1-6,65.3,58.1,50.8,52.7,48.7,44.4,84,75,58,30.19,30.04,7,1,9,0.00
2018-1-7,65.4,58.6,51.7,53.7,49.7,47.2,88,78,57,30.38,30.19,6,1,9,0.00
2018-1-8,65.3,58.8,52.2,53.1,49.6,46.9,88,75,63,30.45,30.37,4,1,7,0.00
2018-1-9,61.3,53.8,53.0,47.4,46.7,46.2,79,77,76,30.42,30.27,10,1,13,0.00
2018-1-10,63.2,59.0,54.7,48.4,46.3,44.7,75,67,55,30.28,29.86,7,1,12,0.00
2018-1-11,56.8,54.5,52.3,51.8,49.4,46.9,92,83,73,29.94,29.78,5,1,7,0.21
2018-1-12,60.7,55.6,50.4,50.4,47.4,44.3,89,77,60,30.00,29.89,6,2,10,0.14
2018-1-13,58.6,54.0,49.5,49.8,44.7,34.9,90,72,47,29.95,29.79,12,4,23,0.03
2018-1-14,60.1,54.4,48.8,41.2,37.7,34.0,71,56,39,30.28,29.96,13,2,21,0.00
2018-1-15,50.9,49.6,48.2,48.7,45.2,39.9,93,85,66,30.33,30.22,10,2,14,0.56
2018-1-16,59.7,55.1,50.4,50.6,49.2,47.0,94,82,66,30.22,30.00,7,2,12,0.59
2018-1-17,60.5,56.7,52.9,52.3,50.5,48.3,88,81,73,30.01,29.57,14,4,27,0.07
2018-1-18,57.9,51.8,45.8,51.8,32.4,20.8,85,50,28,30.12,29.57,16,6,35,0.07
2018-1-19,56.5,51.2,45.9,49.0,39.3,24.1,78,63,41,30.13,30.03,7,2,10,0.00
2018-1-20,59.2,57.1,54.9,51.6,49.4,45.8,82,76,65,30.05,29.91,9,3,17,0.00
2018-1-21,57.2,54.5,51.7,52.5,50.6,47.9,94,87,78,29.92,29.57,3,1,7,0.61
2018-1-22,56.3,50.7,45.0,49.8,41.4,34.0,92,70,44,29.87,29.55,10,2,17,0.18
2018-1-23,57.7,49.6,41.7,38.6,33.3,23.8,76,57,28,30.15,29.87,12,1,20,0.00
2018-1-24,53.5,49.4,45.3,31.8,28.9,22.2,52,45,32,30.39,30.14,16,7,24,0.00
2018-1-25,53.6,46.4,39.3,32.2,29.2,25.7,69,52,38,30.39,30.27,13,3,20,0.00
2018-1-26,57.4,48.0,38.6,37.3,30.5,21.2,68,55,28,30.32,30.22,7,2,9,0.00
2018-1-27,58.6,50.0,41.5,42.2,36.5,31.8,78,62,43,30.43,30.32,7,2,10,0.00
2018-1-28,60.2,51.6,43.1,45.6,40.8,35.7,82,71,51,30.48,30.41,4,1,6,0.00
2018-1-29,59.4,52.0,44.5,45.5,41.1,36.7,80,69,52,30.45,30.35,4,1,7,0.00
2018-1-30,56.9,53.3,49.8,48.5,43.7,41.4,80,72,61,30.37,30.27,6,2,10,0.00
2018-1-31,58.9,52.3,45.7,48.8,45.5,41.7,88,78,66,30.29,30.21,6,1,9,0.00
2018-2-1,60.9,56.5,52.1,48.4,46.3,41.1,83,72,50,30.21,30.12,8,2,12,0.00
2018-2-2,61.4,58.9,56.4,51.2,48.2,42.6,77,69,58,30.15,30.07,10,3,17,0.00
2018-2-3,61.7,57.6,53.4,52.9,49.9,43.7,91,78,53,30.12,29.88,16,3,27,0.46
2018-2-4,60.3,53.6,46.9,52.4,48.7,42.6,94,84,62,30.06,29.82,13,2,23,0.99
2018-2-5,60.9,52.1,43.4,46.7,43.0,38.9,90,73,49,30.12,30.05,4,1,6,0.01
2018-2-6,63.2,54.7,46.1,45.0,42.7,39.6,85,68,44,30.12,30.00,6,1,8,0.00
2018-2-7,62.5,56.2,50.0,52.8,45.7,40.3,89,68,58,30.01,29.88,12,3,16,0.23
2018-2-8,62.2,57.2,52.3,52.9,48.2,45.1,90,73,57,30.05,29.94,8,2,12,0.39
2018-2-9,60.6,56.8,53.0,50.6,47.7,44.9,83,75,62,30.03,29.83,6,1,9,0.01
2018-2-10,61.7,56.5,51.2,51.7,48.6,45.3,92,83,58,29.84,29.31,18,3,29,1.11
2018-2-11,55.0,52.5,50.0,50.0,46.2,39.8,92,79,62,29.87,29.36,12,4,22,0.23
2018-2-12,57.1,52.2,47.3,43.7,41.5,38.1,80,67,51,29.97,29.87,7,1,12,0.00
2018-2-13,58.4,53.2,48.2,50.0,44.9,40.4,84,73,57,29.99,29.77,14,3,22,0.13
2018-2-14,56.2,51.5,46.8,48.3,42.1,34.8,92,72,47,29.96,29.79,12,3,20,1.16
2018-2-15,52.6,50.1,47.6,45.6,40.9,36.8,85,71,57,29.91,29.68,16,5,26,0.12
2018-2-16,61.7,55.0,48.3,42.0,39.3,36.6,73,59,45,30.16,29.91,17,4,25,0.00
2018-2-17,64.9,54.7,44.4,45.2,40.4,36.6,79,62,42,30.19,30.12,7,1,12,0.00
2018-2-18,58.2,52.7,47.3,47.9,45.3,42.4,85,76,64,30.18,30.00,5,1,8,0.00
2018-2-19,59.5,54.8,50.0,49.7,46.6,44.3,90,75,58,30.00,29.89,4,0,5,0.02
2018-2-20,54.4,52.0,49.7,50.6,48.2,46.3,91,88,82,29.89,29.74,5,1,8,0.40
2018-2-21,67.3,58.3,49.5,52.1,48.2,43.1,92,82,44,29.75,29.63,14,1,23,0.25
2018-2-22,61.9,55.4,49.1,51.5,48.1,44.1,91,78,54,29.81,29.70,8,2,12,0.05
2018-2-23,68.0,58.4,48.8,47.8,44.2,40.9,86,63,38,29.81,29.67,16,3,24,0.00
2018-2-24,61.6,54.9,48.5,50.6,46.6,43.6,90,79,54,29.80,29.65,18,3,28,1.11
2018-2-25,57.2,53.8,50.4,49.9,47.8,45.7,91,85,70,29.81,29.57,8,2,12,0.21
2018-2-26,53.8,49.4,45.1,47.9,45.3,41.4,92,84,69,29.61,29.47,19,3,28,0.94
2018-2-27,58.6,51.9,45.3,49.0,43.2,38.7,88,69,50,29.75,29.61,12,4,22,0.20
2018-2-28,53.2,48.8,44.3,49.1,36.1,26.2,90,61,42,30.10,29.63,9,3,15,0.05
2018-3-1,57.7,50.6,43.5,45.0,37.6,30.0,74,61,48,30.12,29.95,8,2,12,0.00
2018-3-2,62.7,56.7,50.6,54.0,49.2,42.9,86,78,69,29.95,29.63,11,3,16,0.04
2018-3-3,66.1,60.3,54.5,54.1,49.7,40.6,88,71,40,29.76,29.67,9,2,14,0.10
2018-3-4,68.9,61.3,53.8,57.9,51.3,44.0,89,72,50,29.73,29.62,10,2,14,0.02
2018-3-5,78.7,66.4,54.2,56.4,48.5,38.9,90,61,30,29.66,29.35,15,3,25,0.10
2018-3-6,72.0,64.6,57.3,55.5,51.5,41.1,91,69,33,29.71,29.57,14,4,24,0.08
2018-3-7,66.2,61.0,55.8,56.2,52.1,45.8,88,73,52,29.83,29.67,10,3,18,0.00
2018-3-8,61.6,55.0,48.6,51.7,46.5,41.2,91,70,52,30.02,29.70,16,4,27,0.57
2018-3-9,62.1,55.5,48.9,46.6,40.7,35.2,68,59,38,30.09,30.01,6,2,9,0.00
2018-3-10,64.1,56.4,48.7,49.4,41.9,29.8,74,59,28,30.11,30.05,6,1,10,0.00
2018-3-11,64.5,57.5,50.6,53.3,48.4,39.6,85,73,55,30.08,29.98,7,1,12,0.00
2018-3-12,71.2,62.3,53.5,56.7,53.1,49.4,90,77,50,30.01,29.77,11,2,23,0.37
2018-3-13,63.5,59.5,55.5,53.8,50.2,48.2,84,73,63,29.95,29.85,11,3,17,0.00
2018-3-14,63.9,59.5,55.0,50.3,48.0,42.0,82,68,46,29.93,29.87,11,3,17,0.00
2018-3-15,65.0,59.1,53.2,50.9,46.9,41.0,85,68,44,29.99,29.88,8,2,12,0.02
2018-3-16,68.3,60.9,53.4,52.7,46.6,39.8,79,61,41,29.99,29.90,6,2,12,0.00
2018-3-17,71.9,64.8,57.8,52.8,47.4,40.0,70,54,35,29.90,29.56,15,5,21,0.00
2018-3-18,77.8,66.7,55.5,56.5,49.1,37.0,85,61,23,29.75,29.43,16,4,27,0.13
2018-3-19,66.5,59.1,51.7,55.6,48.4,40.3,92,73,45,29.75,29.57,16,3,29,0.82
2018-3-20,63.7,57.5,51.3,49.7,46.0,42.9,82,67,48,29.98,29.70,10,3,21,0.00
2018-3-21,68.3,59.9,51.4,51.5,45.1,38.0,76,60,39,29.98,29.76,9,2,15,0.00
2018-3-22,74.4,65.8,57.2,56.6,46.8,32.1,80,51,24,29.76,29.41,18,5,27,0.00
2018-3-23,58.9,53.2,47.6,49.7,46.1,41.8,89,77,54,29.57,29.46,18,4,27,1.17
2018-3-24,58.1,52.5,47.0,45.3,43.0,38.1,90,74,50,29.80,29.49,9,2,13,0.38
2018-3-25,66.2,57.7,49.3,50.7,42.7,37.4,88,63,35,29.84,29.66,17,3,26,0.26
2018-3-26,65.3,59.1,52.9,50.5,46.8,41.2,86,68,43,29.88,29.71,13,3,22,0.06
2018-3-27,63.2,58.4,53.6,53.0,49.2,45.6,87,74,56,29.93,29.87,12,2,17,0.02
2018-3-28,62.2,57.1,51.9,51.0,47.9,43.7,91,72,53,29.90,29.75,9,2,14,0.05
2018-3-29,64.8,55.9,46.9,45.6,41.4,31.5,83,59,30,30.06,29.81,6,2,12,0.00
2018-3-30,65.5,58.3,51.1,54.8,46.6,35.6,84,65,50,30.15,30.05,7,1,9,0.00
2018-3-31,70.3,62.8,55.4,55.0,50.4,46.2,83,66,47,30.12,29.86,10,2,14,0.00
2018-4-1,68.2,62.8,57.6,55.9,48.6,40.1,77,61,49,29.92,29.77,13,5,21,0.00
2018-4-2,64.5,59.2,54.0,50.2,46.8,42.5,75,65,49,30.12,29.93,9,3,15,0.00
2018-4-3,70.5,60.6,50.7,48.8,45.8,42.7,84,61,39,30.18,30.11,6,1,9,0.00
2018-4-4,71.0,62.1,53.2,48.6,42.7,36.9,73,50,31,30.19,30.09,8,2,12,0.00
2018-4-5,71.7,62.8,54.0,52.1,41.1,31.2,68,48,25,30.09,29.86,9,1,12,0.00
2018-4-6,66.5,60.6,54.7,54.5,46.8,39.2,86,62,46,29.88,29.76,7,2,12,0.19
2018-4-7,72.3,63.2,54.3,52.6,48.6,39.6,85,61,38,30.02,29.83,14,4,22,0.00
2018-4-8,75.0,65.2,55.6,52.1,46.5,40.3,66,50,38,30.02,29.95,10,2,13,0.00
2018-4-9,76.1,66.2,56.4,55.9,47.5,39.7,79,55,30,30.00,29.91,8,1,12,0.00
2018-4-10,75.1,65.2,55.2,54.3,51.2,46.5,85,64,41,29.95,29.84,7,1,12,0.00
2018-4-11,72.2,65.0,57.9,56.7,51.0,46.8,80,66,48,29.89,29.74,7,1,9,0.00
2018-4-12,81.5,69.2,57.0,57.3,52.3,47.2,82,62,31,29.86,29.76,10,1,14,0.00
2018-4-13,76.7,67.6,58.4,56.7,52.5,49.4,77,61,41,29.98,29.85,6,1,9,0.00
2018-4-14,87.6,73.0,58.4,59.8,53.3,47.1,71,54,29,30.01,29.89,10,2,15,0.00
2018-4-15,89.4,80.7,71.9,53.7,44.0,32.7,52,29,17,29.93,29.73,14,4,23,0.00
2018-4-16,82.6,71.6,60.5,60.0,52.4,37.3,86,57,20,29.97,29.78,15,2,24,0.25
2018-4-17,69.8,63.1,56.4,57.9,54.4,50.1,86,73,59,30.07,29.97,7,2,12,0.00
2018-4-18,76.8,67.5,58.2,59.4,55.8,52.2,83,72,48,30.17,30.06,8,1,12,0.00
2018-4-19,81.0,70.3,59.7,58.5,52.2,44.3,88,58,28,30.17,30.04,12,2,17,0.00
2018-4-20,78.8,69.2,59.7,56.8,51.4,46.9,69,54,36,30.06,29.90,9,1,13,0.00
2018-4-21,76.5,69.2,61.9,51.2,41.1,32.6,56,36,24,30.10,29.99,14,4,28,0.00
2018-4-22,72.9,64.8,56.6,56.8,48.2,40.0,70,56,39,30.10,30.02,7,2,12,0.00
2018-4-23,71.5,65.1,58.6,58.8,54.4,48.6,81,68,61,30.04,29.93,7,2,10,0.00
2018-4-24,78.7,68.2,57.8,60.2,56.3,52.1,89,69,41,30.05,29.97,7,1,9,0.00
2018-4-25,77.5,69.2,60.9,61.5,55.2,45.1,87,66,32,30.05,29.96,6,1,9,0.00
2018-4-26,77.0,68.6,60.2,59.6,54.2,48.0,74,61,45,30.00,29.85,6,1,9,0.00
2018-4-27,83.2,72.4,61.6,60.8,57.0,53.4,83,61,43,29.93,29.83,8,1,10,0.00
2018-4-28,87.1,76.3,65.5,56.2,50.1,39.7,69,42,19,29.94,29.81,15,5,27,0.00
2018-4-29,89.0,81.2,73.4,55.0,48.5,42.1,51,33,23,29.87,29.76,15,5,24,0.00
2018-4-30,80.5,73.3,66.2,60.9,55.0,50.4,78,56,36,29.91,29.80,18,5,30,0.18
2018-5-1,82.7,72.6,62.6,58.8,55.4,51.2,73,56,39,29.91,29.81,8,1,10,0.00
2018-5-2,87.7,76.0,64.4,58.1,53.1,45.4,67,47,28,29.82,29.65,12,3,18,0.00
2018-5-3,84.7,75.2,66.1,62.3,53.7,43.3,77,50,25,29.76,29.53,22,4,31,0.00
2018-5-4,71.2,67.6,64.1,58.5,56.7,50.6,80,70,50,29.86,29.76,6,2,10,0.00
2018-5-5,70.9,67.4,63.9,59.8,58.4,55.7,84,75,60,29.87,29.83,7,2,9,0.00
2018-5-6,70.3,66.1,61.8,62.5,60.3,57.1,94,82,71,29.87,29.80,8,2,12,1.08
2018-5-7,74.8,68.6,62.6,63.8,61.9,59.3,94,84,68,29.81,29.75,8,1,12,0.07
2018-5-8,75.5,68.2,60.9,63.4,59.7,56.2,89,77,54,29.79,29.73,7,1,9,0.00
2018-5-9,73.7,67.1,60.5,63.1,60.0,55.6,90,78,62,29.74,29.69,7,1,12,0.00
2018-5-10,72.8,67.1,61.4,61.5,57.8,52.5,84,74,53,29.82,29.69,8,2,12,0.02
2018-5-11,76.2,69.7,63.2,64.2,60.7,57.4,90,78,58,29.93,29.82,8,2,13,0.04
2018-5-12,81.6,70.9,60.3,62.8,57.2,49.5,89,66,37,29.94,29.86,10,2,18,0.00
2018-5-13,77.5,69.9,62.4,62.8,59.1,54.8,81,69,47,29.94,29.88,9,2,12,0.00
2018-5-14,75.8,70.1,64.3,64.2,60.8,56.9,83,73,58,30.02,29.92,9,2,12,0.00
2018-5-15,80.2,71.8,63.7,63.1,57.5,51.4,88,65,39,30.04,29.96,8,2,12,0.00
2018-5-16,76.5,71.8,67.2,63.6,59.5,53.0,79,67,52,30.02,29.92,8,2,13,0.02
2018-5-17,78.9,71.7,64.5,62.7,59.1,54.8,85,65,45,30.06,29.95,8,2,10,0.04
2018-5-18,82.7,75.0,67.3,64.1,59.3,54.3,74,59,45,29.97,29.82,9,2,14,0.00
2018-5-19,78.3,71.9,65.7,65.9,59.9,49.7,85,65,43,29.89,29.78,10,2,12,0.00
2018-5-20,86.2,75.6,65.0,64.5,60.7,55.0,87,65,37,29.90,29.83,9,1,14,0.00
2018-5-21,88.9,77.9,66.8,62.1,59.0,54.6,80,54,34,29.87,29.78,9,2,13,0.00
2018-5-22,86.9,77.5,68.1,63.2,58.7,55.4,71,54,36,30.02,29.86,10,3,14,0.00
2018-5-23,85.9,77.2,68.5,64.4,60.0,54.2,79,59,35,30.01,29.88,9,2,15,0.00
2018-5-24,76.0,72.2,68.3,64.9,62.8,60.1,87,72,58,29.95,29.87,9,3,14,0.04
2018-5-25,84.3,74.6,65.0,64.0,61.3,56.8,87,67,40,29.92,29.81,13,2,17,0.00
2018-5-26,87.2,76.9,66.7,61.6,56.0,50.6,72,50,31,29.98,29.90,11,2,18,0.00
2018-5-27,87.8,78.2,68.7,60.6,56.3,51.9,62,48,31,30.00,29.94,13,3,16,0.00
2018-5-28,88.5,78.9,69.4,62.2,59.0,54.8,64,53,33,30.02,29.92,12,3,17,0.00
2018-5-29,87.1,78.6,70.1,61.8,58.0,53.5,69,51,32,29.98,29.89,12,3,20,0.00
2018-5-30,85.8,77.8,69.7,63.8,56.9,51.2,64,50,35,29.96,29.88,8,2,14,0.00
2018-5-31,83.8,76.6,69.3,66.6,60.2,53.3,71,58,36,29.94,29.89,7,2,12,0.00
2018-6-1,86.2,77.4,68.6,66.8,61.6,55.5,75,59,39,29.98,29.93,7,2,9,0.00
2018-6-2,89.0,79.2,69.5,67.9,60.3,55.1,73,54,35,29.99,29.92,6,2,9,0.00
2018-6-3,86.4,78.4,70.5,65.7,60.6,54.7,68,56,36,29.97,29.88,6,2,12,0.00
2018-6-4,87.1,79.5,71.9,67.8,60.7,54.2,74,54,33,29.90,29.79,7,2,12,0.00
2018-6-5,89.5,80.8,72.2,65.6,58.2,47.0,61,49,24,29.86,29.79,6,2,12,0.00
2018-6-6,83.6,77.2,70.9,70.6,61.7,48.7,81,60,38,29.97,29.84,8,2,12,0.00
2018-6-7,88.3,79.4,70.6,69.6,62.0,54.3,81,58,32,30.02,29.94,5,2,9,0.00
2018-6-8,97.2,84.5,71.8,67.3,59.2,53.5,60,44,25,29.99,29.83,10,2,13,0.00
2018-6-9,82.7,78.1,73.4,68.1,63.8,60.0,77,61,48,29.89,29.83,8,2,14,0.00
2018-6-10,81.1,76.3,71.6,67.4,64.3,59.6,77,67,50,29.84,29.74,9,3,14,0.00
2018-6-11,87.8,78.3,68.8,68.0,63.8,60.2,78,62,46,29.81,29.75,7,2,10,0.00
2018-6-12,88.1,79.6,71.2,68.6,61.7,55.1,71,54,34,29.80,29.73,6,2,12,0.00
2018-6-13,87.8,80.8,74.0,71.2,65.1,57.6,81,61,38,29.75,29.61,8,2,12,0.00
2018-6-14,83.4,78.2,73.4,71.7,65.9,61.1,85,68,50,29.70,29.63,11,3,16,0.00
2018-6-15,75.3,71.3,67.4,66.5,63.4,59.4,91,76,61,29.70,29.63,10,2,18,0.24
2018-6-16,79.8,73.0,66.3,65.2,62.6,59.1,87,71,54,29.79,29.67,9,2,14,0.00
2018-6-17,80.5,75.2,70.0,68.7,64.8,61.5,87,74,57,29.84,29.78,8,2,12,0.07
2018-6-18,83.2,75.4,67.6,67.7,64.6,61.4,85,71,48,29.84,29.76,8,2,13,0.00
2018-6-19,87.4,78.6,69.9,66.2,62.6,56.6,79,62,36,29.93,29.80,15,2,21,0.00
2018-6-20,89.0,79.4,69.9,65.1,54.6,43.9,76,45,25,29.98,29.92,12,4,23,0.00
2018-6-21,87.2,79.5,72.0,65.9,55.8,49.0,56,44,33,29.99,29.91,7,2,10,0.00
2018-6-22,85.5,78.6,71.7,69.0,62.8,55.5,79,59,41,29.95,29.88,9,3,17,0.00
2018-6-23,82.8,77.4,72.0,69.4,65.0,58.6,80,66,46,29.92,29.85,9,3,16,0.00
2018-6-24,85.1,77.9,70.9,66.0,63.8,60.9,78,63,45,29.90,29.86,11,2,16,0.00
2018-6-25,74.9,71.4,68.0,67.7,64.5,61.4,90,77,67,29.90,29.76,10,1,16,0.23
2018-6-26,79.0,72.5,66.0,64.9,61.2,57.5,92,71,49,29.76,29.57,14,4,21,0.60
2018-6-27,77.9,71.1,64.2,66.1,63.5,60.8,92,83,59,29.71,29.57,9,2,15,0.33
2018-6-28,74.6,70.2,66.0,64.3,62.1,59.4,86,77,68,29.81,29.63,10,4,20,0.08
2018-6-29,79.5,73.2,67.0,65.7,61.5,59.3,79,68,53,29.82,29.75,8,3,15,0.00
2018-6-30,77.5,72.7,67.8,64.5,60.3,56.4,80,68,52,29.79,29.75,8,3,13,0.00
2018-7-2,89.4,80.2,71.1,68.2,62.8,53.3,71,52,30,29.98,29.83,7,2,9,0.00
2018-7-3,89.0,80.5,72.1,68.0,61.4,55.1,73,53,32,29.98,29.91,6,2,9,0.00
2018-7-4,89.2,80.6,72.1,69.0,64.2,55.8,75,59,36,29.93,29.87,5,1,10,0.00
2018-7-5,91.6,82.2,72.9,70.4,65.9,59.8,75,59,39,29.91,29.82,7,2,12,0.00
2018-7-6,91.8,83.7,75.6,70.3,65.4,58.6,70,58,36,29.86,29.78,8,2,10,0.00
2018-7-7,86.9,80.4,73.8,71.0,66.7,61.8,81,64,51,29.82,29.76,9,2,15,0.00
2018-7-8,84.3,78.4,72.6,70.1,65.7,61.7,74,66,57,29.81,29.76,10,3,15,0.00
2018-7-9,83.3,77.1,70.8,68.8,65.8,62.8,80,69,52,29.87,29.79,9,2,14,0.00
2018-7-10,82.3,76.9,71.4,67.7,63.0,56.9,74,64,45,29.91,29.85,8,3,12,0.00
2018-7-11,84.3,76.8,69.5,67.6,61.6,56.4,70,60,46,29.94,29.89,8,2,12,0.00
2018-7-12,87.4,79.6,71.8,69.3,64.2,58.9,72,60,48,29.95,29.89,5,2,8,0.00
2018-7-13,88.9,81.2,73.6,69.8,65.1,61.9,74,58,43,29.93,29.86,8,2,13,0.00
2018-7-14,90.5,82.1,73.8,69.0,65.9,61.3,74,59,41,29.89,29.82,7,2,10,0.00
2018-7-15,91.0,82.8,74.7,69.9,66.3,60.9,77,58,38,29.88,29.82,6,2,9,0.00
2018-7-16,91.3,83.2,75.1,71.9,65.1,56.4,79,57,34,29.87,29.84,8,2,12,0.00
2018-7-17,90.4,82.9,75.4,73.4,65.3,58.8,79,58,42,29.88,29.73,12,3,20,0.00
2018-7-18,84.6,79.7,74.9,72.5,69.2,67.0,84,71,58,29.79,29.74,9,3,14,0.00
2018-7-19,76.5,75.9,75.3,67.9,67.3,66.7,76,74,73,29.79,29.78,2,0,4,0.00